Time;durP1;ratioP1;P1;durP2;ratioP2;P2;SDS_P1;SDS_P2;PMS_P1;PMS_P2;Temp;Humidity;BMP_temperature;BMP_pressure;BME280_temperature;BME280_humidity;BME280_pressure;Samples;Min_cycle;Max_cycle;Signal;HPM_P1;HPM_P2
2022/11/14 00:02:09;;;;;;;44.22;20.95;;;7.00;99.90;;;;;;5114103;28;20094;-87
2022/11/14 00:04:35;;;;;;;40.67;19.38;;;7.20;99.90;;;;;;5079469;28;20046;-88
2022/11/14 00:07:01;;;;;;;43.15;22.55;;;7.00;99.90;;;;;;5096358;28;20112;-89
2022/11/14 00:09:27;;;;;;;39.00;19.00;;;7.00;99.90;;;;;;5113129;28;20470;-88
2022/11/14 00:11:53;;;;;;;44.33;21.88;;;7.00;99.90;;;;;;5095526;28;20048;-88
2022/11/14 00:14:18;;;;;;;43.95;22.25;;;7.00;99.90;;;;;;5092855;28;20439;-89
2022/11/14 00:16:44;;;;;;;39.92;21.33;;;7.10;99.90;;;;;;5054353;28;20047;-89
2022/11/14 00:19:10;;;;;;;41.70;21.58;;;7.00;99.90;;;;;;5079034;28;20043;-88
2022/11/14 00:21:35;;;;;;;45.38;22.10;;;7.00;99.90;;;;;;5079239;28;20070;-88
2022/11/14 00:24:01;;;;;;;42.30;21.48;;;7.00;99.90;;;;;;5078149;28;20066;-88
2022/11/14 00:26:27;;;;;;;42.55;22.13;;;7.60;99.90;;;;;;5075864;28;20074;-88
2022/11/14 00:28:53;;;;;;;41.20;20.95;;;7.10;99.90;;;;;;5062268;28;20065;-89
2022/11/14 00:31:19;;;;;;;44.58;23.40;;;7.00;99.90;;;;;;5095706;28;20052;-89
2022/11/14 00:33:45;;;;;;;42.13;22.70;;;7.60;99.90;;;;;;5084464;28;20062;-89
2022/11/14 00:36:10;;;;;;;37.83;21.58;;;7.10;99.90;;;;;;5092884;28;20066;-87
2022/11/14 00:38:36;;;;;;;42.53;22.75;;;7.10;99.90;;;;;;5096166;28;20044;-88
2022/11/14 00:41:01;;;;;;;40.63;22.83;;;7.30;99.90;;;;;;5076633;28;20048;-87
2022/11/14 00:43:27;;;;;;;43.05;24.23;;;7.90;99.90;;;;;;5114471;28;20039;-88
2022/11/14 00:45:53;;;;;;;45.30;24.20;;;7.20;99.90;;;;;;5112933;28;20047;-84
2022/11/14 00:48:19;;;;;;;42.85;23.30;;;7.20;99.90;;;;;;5078259;28;20050;-87
2022/11/14 00:50:44;;;;;;;48.65;26.48;;;7.20;99.90;;;;;;5096504;28;20043;-89
2022/11/14 00:53:10;;;;;;;46.42;23.40;;;7.20;99.90;;;;;;5112877;28;20039;-89
2022/11/14 00:55:36;;;;;;;49.28;26.85;;;7.20;99.90;;;;;;5096024;28;20083;-89
2022/11/14 00:58:01;;;;;;;43.15;21.73;;;7.60;99.90;;;;;;5095650;28;20452;-88
2022/11/14 01:00:27;;;;;;;46.85;23.42;;;7.10;99.90;;;;;;5103335;28;20028;-86
2022/11/14 01:02:55;;;;;;;53.85;26.92;;;7.20;99.90;;;;;;5136128;28;20035;-85
2022/11/14 01:05:22;;;;;;;45.90;23.73;;;7.80;99.90;;;;;;5135390;28;20031;-85
2022/11/14 01:07:48;;;;;;;50.55;26.05;;;7.20;99.90;;;;;;5106421;28;20054;-89
2022/11/14 01:10:15;;;;;;;51.50;27.02;;;7.20;99.90;;;;;;5095099;28;20059;-89
2022/11/14 01:12:41;;;;;;;55.40;27.65;;;7.10;99.90;;;;;;5058942;28;20040;-89
2022/11/14 01:15:07;;;;;;;49.88;23.50;;;8.30;99.90;;;;;;5073895;28;20051;-87
2022/11/14 01:17:32;;;;;;;53.65;28.60;;;7.10;99.90;;;;;;5074883;28;20676;-87
2022/11/14 01:19:58;;;;;;;61.28;30.30;;;7.00;99.90;;;;;;5071671;28;20044;-87
2022/11/14 01:22:24;;;;;;;54.78;28.17;;;6.90;99.90;;;;;;5074868;28;20048;-89
2022/11/14 01:24:49;;;;;;;61.63;31.20;;;6.90;99.90;;;;;;5049668;28;20385;-88
2022/11/14 01:27:15;;;;;;;65.43;31.23;;;6.80;99.90;;;;;;5092507;28;20044;-88
2022/11/14 01:29:41;;;;;;;66.93;31.80;;;8.00;99.90;;;;;;5112145;28;20093;-89
2022/11/14 01:32:06;;;;;;;67.45;33.05;;;6.90;99.90;;;;;;5111682;28;20047;-88
2022/11/14 01:34:32;;;;;;;59.25;31.52;;;6.80;99.90;;;;;;5080659;28;20054;-89
2022/11/14 01:36:57;;;;;;;68.25;33.78;;;6.80;99.90;;;;;;5095407;28;20112;-90
2022/11/14 01:39:25;;;;;;;70.45;34.13;;;6.80;99.90;;;;;;5059187;28;20090;-88
2022/11/14 01:41:50;;;;;;;70.28;36.72;;;7.30;99.90;;;;;;5094873;28;20032;-89
2022/11/14 01:44:36;;;;;;;67.78;33.92;;;6.70;99.90;;;;;;5074222;28;20110;-88
2022/11/14 01:47:02;;;;;;;69.60;33.95;;;6.80;99.90;;;;;;5062950;28;20059;-89
2022/11/14 01:49:41;;;;;;;70.60;34.40;;;6.80;99.90;;;;;;5088905;28;20171;-89
2022/11/14 01:52:22;;;;;;;68.20;34.25;;;6.90;99.90;;;;;;5075320;28;20472;-88
2022/11/14 01:54:49;;;;;;;66.90;33.45;;;6.80;99.90;;;;;;5092512;28;20097;-90
2022/11/14 01:57:17;;;;;;;72.60;36.60;;;6.80;99.90;;;;;;5074759;28;20448;-89
2022/11/14 01:59:46;;;;;;;73.53;36.60;;;6.80;99.90;;;;;;5074421;28;20059;-87
2022/11/14 02:02:17;;;;;;;73.07;35.58;;;6.70;99.90;;;;;;5101866;27;20462;-86
2022/11/14 02:04:46;;;;;;;74.85;36.70;;;6.80;99.90;;;;;;5093271;28;20054;-88
2022/11/14 02:07:11;;;;;;;69.50;34.17;;;6.70;99.90;;;;;;5077604;28;20075;-89
2022/11/14 02:09:38;;;;;;;66.15;34.83;;;6.80;99.90;;;;;;5071044;28;20047;-88
2022/11/14 02:12:06;;;;;;;70.88;32.05;;;6.70;99.90;;;;;;5058185;28;20103;-84
2022/11/14 02:14:32;;;;;;;70.53;34.75;;;6.70;99.90;;;;;;5049379;28;20047;-86
2022/11/14 02:16:57;;;;;;;69.22;35.13;;;6.70;99.90;;;;;;5115144;28;20107;-84
2022/11/14 02:19:23;;;;;;;62.03;30.98;;;6.70;99.90;;;;;;5134100;27;20246;-87
2022/11/14 02:21:48;;;;;;;70.45;34.72;;;6.60;99.90;;;;;;5128581;28;20051;-88
2022/11/14 02:24:14;;;;;;;67.88;33.75;;;6.70;99.90;;;;;;5077088;28;20044;-87
2022/11/14 02:26:40;;;;;;;63.10;29.85;;;6.80;99.90;;;;;;5077840;28;20383;-87
2022/11/14 02:29:06;;;;;;;70.35;36.42;;;6.80;99.90;;;;;;5077542;28;20047;-84
2022/11/14 02:31:32;;;;;;;55.10;24.60;;;6.80;99.90;;;;;;5078002;28;20047;-88
2022/11/14 02:33:58;;;;;;;68.30;33.25;;;6.80;99.90;;;;;;5087478;28;20046;-87
2022/11/14 02:36:24;;;;;;;69.90;33.92;;;6.90;99.90;;;;;;5083388;28;20445;-88
2022/11/14 02:38:49;;;;;;;71.32;36.50;;;7.10;99.90;;;;;;5077591;28;20130;-87
2022/11/14 02:41:15;;;;;;;74.93;35.55;;;6.90;99.90;;;;;;5094649;28;20123;-87
2022/11/14 02:43:41;;;;;;;59.72;30.50;;;6.90;99.90;;;;;;5076558;28;20044;-88
2022/11/14 02:46:06;;;;;;;64.78;34.17;;;7.00;99.90;;;;;;5061820;28;20040;-87
2022/11/14 02:48:32;;;;;;;70.72;33.95;;;7.00;99.90;;;;;;5087414;28;20118;-87
2022/11/14 02:50:58;;;;;;;59.95;29.88;;;6.80;99.90;;;;;;5098939;28;20099;-87
2022/11/14 02:53:23;;;;;;;68.18;36.78;;;6.90;99.90;;;;;;5103068;28;20480;-88
2022/11/14 02:55:49;;;;;;;64.65;31.73;;;6.90;99.90;;;;;;5090624;28;20036;-87
2022/11/14 02:58:14;;;;;;;69.75;34.10;;;7.10;99.90;;;;;;5077503;28;20083;-87
2022/11/14 03:00:40;;;;;;;73.10;35.72;;;6.80;99.90;;;;;;5083794;28;20047;-86
2022/11/14 03:03:06;;;;;;;56.33;30.33;;;6.80;99.90;;;;;;5092099;28;20051;-85
2022/11/14 03:05:31;;;;;;;75.28;35.30;;;6.90;99.90;;;;;;5096152;28;20039;-87
2022/11/14 03:07:57;;;;;;;70.47;34.42;;;6.80;99.90;;;;;;5110376;28;20075;-88
2022/11/14 03:10:23;;;;;;;68.57;31.83;;;6.80;99.90;;;;;;5096381;28;20075;-87
2022/11/14 03:12:55;;;;;;;66.32;32.42;;;7.20;99.90;;;;;;5102169;28;20036;-88
2022/11/14 03:15:22;;;;;;;61.85;30.25;;;6.90;99.90;;;;;;5109628;28;20043;-86
2022/11/14 03:17:47;;;;;;;67.80;33.83;;;7.00;99.90;;;;;;5096468;28;20046;-88
2022/11/14 03:20:13;;;;;;;66.97;33.15;;;7.00;99.90;;;;;;5111842;28;20031;-84
2022/11/14 03:22:38;;;;;;;72.20;35.65;;;7.00;99.90;;;;;;5134490;28;20047;-88
2022/11/14 03:25:04;;;;;;;67.22;32.78;;;7.00;99.90;;;;;;5091339;28;20044;-88
2022/11/14 03:27:30;;;;;;;70.43;33.97;;;7.00;99.90;;;;;;5080076;28;20047;-87
2022/11/14 03:29:56;;;;;;;63.78;34.10;;;7.00;99.90;;;;;;5102068;28;20055;-84
2022/11/14 03:32:21;;;;;;;67.75;34.85;;;7.00;99.90;;;;;;5138114;27;20048;-84
2022/11/14 03:34:47;;;;;;;63.00;35.40;;;7.00;99.90;;;;;;5114455;28;20108;-86
2022/11/14 03:37:13;;;;;;;55.65;28.63;;;7.00;99.90;;;;;;5095605;28;20063;-87
2022/11/14 03:39:38;;;;;;;65.18;32.65;;;7.20;99.90;;;;;;5113418;28;20043;-88
2022/11/14 03:42:04;;;;;;;58.40;27.92;;;7.10;99.90;;;;;;5078654;28;20112;-88
2022/11/14 03:44:30;;;;;;;64.53;33.65;;;7.10;99.90;;;;;;5096941;28;20063;-88
2022/11/14 03:46:55;;;;;;;59.55;31.55;;;8.30;99.90;;;;;;5112683;28;20043;-87
2022/11/14 03:49:21;;;;;;;66.38;34.08;;;8.00;99.90;;;;;;5095638;28;20048;-86
2022/11/14 03:51:47;;;;;;;63.05;31.92;;;7.10;99.90;;;;;;5076128;28;20545;-87
2022/11/14 03:54:12;;;;;;;55.63;29.60;;;7.10;99.90;;;;;;5094005;28;20126;-88
2022/11/14 03:56:38;;;;;;;57.55;28.80;;;7.20;99.90;;;;;;5096419;28;20391;-88
2022/11/14 03:59:04;;;;;;;58.25;30.95;;;7.20;99.90;;;;;;5113537;28;20503;-88
2022/11/14 04:01:29;;;;;;;70.40;32.72;;;7.10;99.90;;;;;;5096116;28;20039;-87
2022/11/14 04:03:55;;;;;;;51.85;24.85;;;7.10;99.90;;;;;;5113449;28;20048;-88
2022/11/14 04:06:20;;;;;;;57.17;30.83;;;7.20;99.90;;;;;;5114963;28;20039;-87
2022/11/14 04:08:46;;;;;;;55.90;29.80;;;7.10;99.90;;;;;;5059517;28;20067;-88
2022/11/14 04:11:12;;;;;;;63.38;32.80;;;7.10;99.90;;;;;;5093823;28;20479;-86
2022/11/14 04:13:37;;;;;;;65.20;32.85;;;7.10;99.90;;;;;;5079231;28;20066;-87
2022/11/14 04:16:03;;;;;;;59.38;30.50;;;7.00;99.90;;;;;;5079341;28;20157;-88
2022/11/14 04:18:29;;;;;;;61.45;32.17;;;7.00;99.90;;;;;;5079087;28;20445;-87
2022/11/14 04:20:55;;;;;;;63.03;32.50;;;7.00;99.90;;;;;;5112995;28;20066;-88
2022/11/14 04:23:20;;;;;;;46.50;24.30;;;6.90;99.90;;;;;;5078902;28;20480;-84
2022/11/14 04:25:46;;;;;;;66.53;33.65;;;7.00;99.90;;;;;;5069865;28;20043;-88
2022/11/14 04:28:12;;;;;;;61.50;32.40;;;7.00;99.90;;;;;;5065323;28;20583;-88
2022/11/14 04:30:38;;;;;;;59.90;29.75;;;6.90;99.90;;;;;;5095753;28;20043;-87
2022/11/14 04:33:03;;;;;;;61.90;32.25;;;6.90;99.90;;;;;;5096074;28;20043;-88
2022/11/14 04:35:29;;;;;;;46.65;25.00;;;7.30;99.90;;;;;;5062353;28;20043;-88
2022/11/14 04:37:55;;;;;;;56.28;30.83;;;7.10;99.90;;;;;;5070617;28;20109;-86
2022/11/14 04:40:20;;;;;;;55.65;30.17;;;7.00;99.90;;;;;;5075692;28;20048;-87
2022/11/14 04:42:46;;;;;;;58.63;31.02;;;7.10;99.90;;;;;;5080978;28;20036;-88
2022/11/14 04:45:12;;;;;;;45.28;24.48;;;7.10;99.90;;;;;;5087006;28;20023;-87
2022/11/14 04:47:39;;;;;;;50.40;26.35;;;7.20;99.90;;;;;;5093936;28;20075;-88
2022/11/14 04:50:05;;;;;;;64.20;33.25;;;7.70;99.90;;;;;;5080860;28;20048;-87
2022/11/14 04:52:30;;;;;;;63.70;32.58;;;7.00;99.90;;;;;;5103354;28;20035;-88
2022/11/14 04:54:56;;;;;;;55.33;30.05;;;6.90;99.90;;;;;;5088952;28;20043;-87
2022/11/14 04:57:22;;;;;;;60.10;31.08;;;7.00;99.90;;;;;;5107260;28;20044;-87
2022/11/14 04:59:47;;;;;;;60.03;31.45;;;7.00;99.90;;;;;;5094887;28;20383;-88
2022/11/14 05:02:13;;;;;;;54.70;25.83;;;6.90;99.90;;;;;;5088497;28;20051;-88
2022/11/14 05:04:39;;;;;;;35.47;17.83;;;6.90;99.90;;;;;;5091421;28;20070;-88
2022/11/14 05:07:04;;;;;;;52.65;28.63;;;7.10;99.90;;;;;;5103395;28;20047;-89
2022/11/14 05:09:30;;;;;;;59.40;30.98;;;8.40;99.90;;;;;;5078417;28;20052;-88
2022/11/14 05:11:56;;;;;;;62.42;33.53;;;7.00;99.90;;;;;;5112093;28;20040;-89
2022/11/14 05:14:23;;;;;;;53.97;27.23;;;6.80;99.90;;;;;;5112366;28;20075;-89
2022/11/14 05:16:48;;;;;;;59.67;31.45;;;6.90;99.90;;;;;;5074699;28;20052;-89
2022/11/14 05:19:14;;;;;;;55.60;28.90;;;6.90;99.90;;;;;;5088014;28;20059;-88
2022/11/14 05:21:40;;;;;;;63.00;31.02;;;6.90;99.90;;;;;;5089641;28;20482;-88
2022/11/14 05:24:05;;;;;;;69.30;34.67;;;6.90;99.90;;;;;;5085738;28;20130;-88
2022/11/14 05:26:31;;;;;;;62.45;32.75;;;6.80;99.90;;;;;;5111256;28;20078;-87
2022/11/14 05:28:57;;;;;;;63.60;33.22;;;6.80;99.90;;;;;;5074751;28;20048;-89
2022/11/14 05:31:22;;;;;;;66.00;32.05;;;6.80;99.90;;;;;;5106849;28;20044;-86
2022/11/14 05:33:49;;;;;;;67.85;35.35;;;6.80;99.90;;;;;;5111362;28;20039;-87
2022/11/14 05:36:15;;;;;;;65.85;33.35;;;6.80;99.90;;;;;;5094713;28;20063;-90
2022/11/14 05:38:41;;;;;;;70.63;33.05;;;6.80;99.90;;;;;;5080565;28;20403;-89
2022/11/14 05:41:07;;;;;;;66.93;35.10;;;6.80;99.90;;;;;;5095212;28;20051;-89
2022/11/14 05:43:33;;;;;;;63.05;29.77;;;7.00;99.90;;;;;;5074532;28;20465;-88
2022/11/14 05:45:59;;;;;;;63.88;30.15;;;7.40;99.90;;;;;;5073717;28;20044;-88
2022/11/14 05:48:25;;;;;;;51.95;25.05;;;6.90;99.90;;;;;;5069126;28;20047;-89
2022/11/14 05:50:58;;;;;;;68.60;34.63;;;6.80;99.90;;;;;;5094716;28;20521;-87
2022/11/14 05:53:23;;;;;;;56.53;27.73;;;6.60;99.90;;;;;;5091950;28;20070;-88
2022/11/14 05:55:49;;;;;;;63.85;33.33;;;6.80;99.90;;;;;;5090603;28;20040;-89
2022/11/14 05:58:15;;;;;;;50.05;26.27;;;6.90;99.90;;;;;;5101143;28;20055;-88
2022/11/14 06:00:40;;;;;;;54.85;26.65;;;6.80;99.90;;;;;;5107633;27;20083;-84
2022/11/14 06:03:06;;;;;;;70.57;34.03;;;6.80;99.90;;;;;;5114732;28;20044;-89
2022/11/14 06:05:33;;;;;;;52.72;24.88;;;6.60;99.90;;;;;;5123478;28;20043;-87
2022/11/14 06:07:58;;;;;;;71.10;35.70;;;6.90;99.90;;;;;;5082816;28;20058;-89
2022/11/14 06:10:24;;;;;;;73.10;35.08;;;6.50;99.90;;;;;;5081598;28;20055;-89
2022/11/14 06:12:50;;;;;;;63.35;30.13;;;6.60;99.90;;;;;;5115565;28;20433;-90
2022/11/14 06:15:16;;;;;;;75.20;36.15;;;6.60;99.90;;;;;;5095278;28;20048;-89
2022/11/14 06:17:41;;;;;;;72.35;31.25;;;6.50;99.90;;;;;;5078339;28;20044;-88
2022/11/14 06:20:07;;;;;;;71.28;33.25;;;6.50;99.90;;;;;;5115757;28;20131;-88
2022/11/14 06:22:34;;;;;;;74.68;35.67;;;6.60;99.90;;;;;;5098736;28;20502;-89
2022/11/14 06:25:03;;;;;;;68.68;34.85;;;7.40;99.90;;;;;;5113831;28;20043;-88
2022/11/14 06:27:28;;;;;;;80.38;36.83;;;6.50;99.90;;;;;;5098490;28;20085;-88
2022/11/14 06:29:54;;;;;;;72.10;32.38;;;6.40;99.90;;;;;;5112090;28;20036;-88
2022/11/14 06:32:20;;;;;;;81.68;36.92;;;6.40;99.90;;;;;;5098430;28;20096;-89
2022/11/14 06:34:45;;;;;;;76.72;34.75;;;6.40;99.90;;;;;;5097746;28;20043;-89
2022/11/14 06:37:11;;;;;;;77.57;35.63;;;6.40;99.90;;;;;;5115426;28;20051;-88
2022/11/14 06:39:36;;;;;;;76.07;35.35;;;7.00;99.90;;;;;;5115404;28;20044;-89
2022/11/14 06:42:02;;;;;;;76.15;34.58;;;6.30;99.90;;;;;;5114106;28;20055;-89
2022/11/14 06:44:28;;;;;;;76.45;35.25;;;6.30;99.90;;;;;;5087644;28;20039;-86
2022/11/14 06:46:54;;;;;;;78.88;34.50;;;6.40;99.90;;;;;;5118091;28;20051;-88
2022/11/14 06:49:19;;;;;;;66.53;30.10;;;6.40;99.90;;;;;;5114512;28;20126;-88
2022/11/14 06:51:46;;;;;;;68.25;31.52;;;6.30;99.90;;;;;;5097865;28;20052;-89
2022/11/14 06:54:12;;;;;;;75.32;34.45;;;6.50;99.90;;;;;;5098318;28;20043;-88
2022/11/14 06:56:37;;;;;;;76.40;32.30;;;6.30;99.90;;;;;;5077824;28;20487;-89
2022/11/14 06:59:03;;;;;;;66.57;29.17;;;6.30;99.90;;;;;;5109513;28;20047;-88
2022/11/14 07:01:29;;;;;;;70.80;30.75;;;6.40;99.90;;;;;;5115334;28;20048;-87
2022/11/14 07:03:57;;;;;;;65.07;30.77;;;6.40;99.90;;;;;;5115905;28;20135;-89
2022/11/14 07:06:24;;;;;;;75.40;34.42;;;6.50;99.90;;;;;;5097867;28;20063;-88
2022/11/14 07:08:50;;;;;;;74.03;34.22;;;6.50;99.90;;;;;;5093983;28;20131;-89
2022/11/14 07:11:25;;;;;;;54.67;24.88;;;6.50;99.90;;;;;;5095387;28;20043;-90
2022/11/14 07:13:57;;;;;;;71.80;30.23;;;6.40;99.90;;;;;;5098234;28;20035;-89
2022/11/14 07:16:24;;;;;;;71.85;32.78;;;6.30;99.90;;;;;;5116859;28;20096;-86
2022/11/14 07:18:50;;;;;;;72.53;33.92;;;6.20;99.90;;;;;;5104295;27;20079;-85
2022/11/14 07:21:15;;;;;;;53.85;23.40;;;6.20;99.90;;;;;;5137512;27;20069;-87
2022/11/14 07:23:41;;;;;;;79.60;34.97;;;6.70;99.90;;;;;;5128110;28;20130;-89
2022/11/14 07:26:08;;;;;;;72.57;34.33;;;6.30;99.90;;;;;;5081296;28;20051;-89
2022/11/14 07:28:35;;;;;;;74.13;33.75;;;6.90;99.90;;;;;;5114210;28;20075;-87
2022/11/14 07:31:04;;;;;;;56.38;27.17;;;6.30;99.90;;;;;;5076701;28;20070;-88
2022/11/14 07:33:30;;;;;;;74.47;34.83;;;6.30;99.90;;;;;;5095444;28;20055;-89
2022/11/14 07:35:56;;;;;;;74.03;33.80;;;6.90;99.90;;;;;;5096529;28;20048;-87
2022/11/14 07:38:21;;;;;;;73.68;34.25;;;6.90;99.90;;;;;;5097235;28;20044;-89
2022/11/14 07:40:57;;;;;;;57.55;26.95;;;6.20;99.90;;;;;;5096134;28;20079;-87
2022/11/14 07:43:23;;;;;;;72.82;34.55;;;6.50;99.90;;;;;;5080257;28;20638;-88
2022/11/14 07:45:49;;;;;;;64.82;29.92;;;6.20;99.90;;;;;;5093133;28;20119;-87
2022/11/14 07:48:15;;;;;;;75.78;34.15;;;6.30;99.90;;;;;;5078587;28;20094;-88
2022/11/14 07:50:41;;;;;;;64.32;29.70;;;6.20;99.90;;;;;;5081698;28;20054;-88
2022/11/14 07:53:07;;;;;;;68.43;33.03;;;6.30;99.90;;;;;;5064388;28;20434;-86
2022/11/14 07:55:35;;;;;;;70.03;34.15;;;6.40;99.90;;;;;;5093362;28;20093;-87
2022/11/14 07:58:00;;;;;;;71.22;33.40;;;6.50;99.90;;;;;;5064443;28;20043;-87
2022/11/14 08:00:26;;;;;;;74.47;35.45;;;6.40;99.90;;;;;;5098393;28;20043;-86
2022/11/14 08:02:52;;;;;;;72.30;33.20;;;6.30;99.90;;;;;;5095409;28;20059;-88
2022/11/14 08:05:17;;;;;;;74.50;34.15;;;6.30;99.90;;;;;;5100968;28;20040;-88
2022/11/14 08:07:43;;;;;;;72.78;33.95;;;6.30;99.90;;;;;;5094301;28;20046;-86
2022/11/14 08:10:10;;;;;;;66.82;33.50;;;6.30;99.90;;;;;;5094881;28;20122;-87
2022/11/14 08:12:38;;;;;;;69.85;33.20;;;6.30;99.90;;;;;;5092321;28;20097;-87
2022/11/14 08:15:08;;;;;;;63.58;31.63;;;6.50;99.90;;;;;;5097234;28;20058;-88
2022/11/14 08:17:34;;;;;;;67.10;31.75;;;6.50;99.90;;;;;;5075785;28;20051;-89
2022/11/14 08:19:59;;;;;;;71.13;34.60;;;6.40;99.90;;;;;;5108351;28;20072;-88
2022/11/14 08:22:25;;;;;;;65.47;31.88;;;6.50;99.90;;;;;;5112008;28;20066;-85
2022/11/14 08:24:51;;;;;;;70.03;32.67;;;6.60;99.90;;;;;;5105557;28;20040;-90
2022/11/14 08:27:17;;;;;;;58.13;26.88;;;6.70;99.90;;;;;;5096550;28;20051;-87
2022/11/14 08:29:43;;;;;;;63.63;31.98;;;6.70;99.90;;;;;;5097653;28;20211;-84
2022/11/14 08:32:09;;;;;;;62.80;32.80;;;6.70;99.90;;;;;;5118473;27;20059;-86
2022/11/14 08:34:35;;;;;;;62.22;27.77;;;6.70;99.90;;;;;;5136296;28;20056;-85
2022/11/14 08:37:01;;;;;;;60.22;31.00;;;6.70;99.90;;;;;;5083155;28;20042;-83
2022/11/14 08:39:27;;;;;;;50.58;27.52;;;6.80;99.90;;;;;;5136067;27;20134;-84
2022/11/14 08:41:52;;;;;;;60.13;31.25;;;6.80;99.90;;;;;;5100499;28;20047;-87
2022/11/14 08:44:18;;;;;;;61.38;29.38;;;6.70;99.90;;;;;;5073778;28;20415;-88
2022/11/14 08:46:44;;;;;;;61.35;30.83;;;6.70;99.90;;;;;;5074979;28;20082;-88
2022/11/14 08:49:09;;;;;;;59.72;28.80;;;6.70;99.90;;;;;;5093727;28;20090;-86
2022/11/14 08:51:35;;;;;;;41.53;19.70;;;6.80;99.90;;;;;;5105866;28;20575;-86
2022/11/14 08:54:01;;;;;;;56.65;29.58;;;6.80;99.90;;;;;;5087355;28;20039;-87
2022/11/14 08:56:27;;;;;;;58.67;28.33;;;7.70;99.90;;;;;;5074128;28;20535;-86
2022/11/14 08:58:52;;;;;;;57.10;31.05;;;6.80;99.90;;;;;;5075505;28;20130;-86
2022/11/14 09:01:18;;;;;;;56.88;29.63;;;6.80;99.90;;;;;;5078111;28;20043;-86
2022/11/14 09:03:44;;;;;;;59.33;28.88;;;6.80;99.90;;;;;;5074524;28;20039;-86
2022/11/14 09:06:10;;;;;;;57.60;29.65;;;6.80;99.90;;;;;;5084846;28;20127;-87
2022/11/14 09:08:35;;;;;;;54.03;29.60;;;7.10;99.90;;;;;;5072084;28;20070;-85
2022/11/14 09:11:01;;;;;;;56.45;31.02;;;6.80;99.90;;;;;;5110691;28;20043;-87
2022/11/14 09:13:27;;;;;;;59.38;30.85;;;6.80;99.90;;;;;;5088937;28;20066;-85
2022/11/14 09:15:53;;;;;;;60.65;31.15;;;6.80;99.90;;;;;;5075202;28;20492;-86
2022/11/14 09:18:19;;;;;;;60.80;32.50;;;6.80;99.90;;;;;;5093821;28;20488;-85
2022/11/14 09:20:44;;;;;;;56.42;27.85;;;6.80;99.90;;;;;;5099939;28;20036;-85
2022/11/14 09:23:10;;;;;;;54.47;29.00;;;7.00;99.90;;;;;;5066774;28;20051;-86
2022/11/14 09:25:36;;;;;;;57.22;30.33;;;7.10;99.90;;;;;;5076063;28;20050;-86
2022/11/14 09:28:05;;;;;;;61.00;30.38;;;7.10;99.90;;;;;;5076474;28;20052;-84
2022/11/14 09:30:32;;;;;;;61.97;31.38;;;7.20;99.90;;;;;;5078559;28;20051;-84
2022/11/14 09:33:00;;;;;;;58.60;29.88;;;7.20;99.90;;;;;;5059057;28;20048;-84
2022/11/14 09:35:26;;;;;;;57.05;30.65;;;7.20;99.90;;;;;;5069362;28;20044;-85
2022/11/14 09:38:03;;;;;;;62.78;33.05;;;7.20;99.90;;;;;;5103886;28;20114;-84
2022/11/14 09:40:29;;;;;;;55.85;29.08;;;5.80;99.90;;;;;;5089328;28;20372;-85
2022/11/14 09:43:01;;;;;;;57.13;31.88;;;7.60;99.90;;;;;;5074910;28;20427;-85
2022/11/14 09:45:27;;;;;;;46.67;24.88;;;7.40;99.90;;;;;;5092523;27;20027;-84
2022/11/14 09:48:03;;;;;;;58.10;31.40;;;7.50;99.90;;;;;;5113756;27;20089;-82
2022/11/14 09:50:33;;;;;;;52.47;27.58;;;7.50;99.90;;;;;;5101729;28;20039;-86
2022/11/14 09:53:27;;;;;;;55.38;30.73;;;7.60;99.90;;;;;;5071479;28;20053;-86
2022/11/14 09:55:52;;;;;;;57.15;29.83;;;7.50;99.90;;;;;;5124857;28;20069;-84
2022/11/14 09:58:19;;;;;;;55.00;30.02;;;7.50;99.90;;;;;;5100267;28;20036;-87
2022/11/14 10:01:00;;;;;;;43.10;21.13;;;7.80;99.90;;;;;;5077499;28;20101;-85
2022/11/14 10:04:02;;;;;;;53.78;29.75;;;7.60;99.90;;;;;;5078409;28;20044;-88
2022/11/14 10:06:52;;;;;;;53.03;29.70;;;7.40;99.90;;;;;;5094341;28;20051;-84
2022/11/14 10:09:47;;;;;;;50.03;27.48;;;7.50;99.90;;;;;;5093924;28;20051;-85
2022/11/14 10:12:36;;;;;;;49.38;26.90;;;7.50;99.90;;;;;;5097897;28;20052;-85
2022/11/14 10:15:14;;;;;;;54.92;29.13;;;7.60;99.90;;;;;;5079440;28;20083;-85
2022/11/14 10:17:49;;;;;;;52.15;28.15;;;7.60;99.90;;;;;;5093916;28;20057;-84
2022/11/14 10:20:20;;;;;;;51.33;27.33;;;7.60;99.90;;;;;;5093393;28;20039;-84
2022/11/14 10:22:49;;;;;;;55.67;31.08;;;8.50;99.90;;;;;;5093550;28;20193;-84
2022/11/14 10:25:26;;;;;;;56.90;30.13;;;7.60;99.90;;;;;;5109851;28;20130;-84
2022/11/14 10:28:04;;;;;;;55.10;29.90;;;7.50;99.90;;;;;;5077379;28;20058;-83
2022/11/14 10:30:36;;;;;;;53.47;29.33;;;7.60;99.90;;;;;;5094521;28;20120;-83
2022/11/14 10:33:07;;;;;;;62.47;31.38;;;7.60;99.90;;;;;;5077204;28;20044;-83
2022/11/14 10:35:32;;;;;;;50.65;28.00;;;7.60;99.90;;;;;;5110118;28;20050;-84
2022/11/14 10:38:14;;;;;;;52.60;29.25;;;7.80;99.90;;;;;;5076551;28;20051;-84
2022/11/14 10:40:43;;;;;;;35.97;19.08;;;7.90;99.90;;;;;;5073117;28;20097;-84
2022/11/14 10:43:18;;;;;;;45.72;25.92;;;8.00;99.90;;;;;;5067409;28;20054;-82
2022/11/14 10:45:48;;;;;;;43.75;22.13;;;8.00;99.90;;;;;;5093237;28;20373;-84
2022/11/14 10:48:28;;;;;;;44.47;21.25;;;8.20;99.90;;;;;;5067109;28;20071;-84
2022/11/14 10:50:56;;;;;;;48.38;28.20;;;8.30;99.90;;;;;;5077328;28;20458;-84
2022/11/14 10:53:40;;;;;;;49.38;27.13;;;8.20;99.90;;;;;;5097711;28;20059;-85
2022/11/14 10:56:11;;;;;;;49.22;25.33;;;8.40;99.90;;;;;;5075842;28;20174;-85
2022/11/14 10:58:37;;;;;;;47.33;27.80;;;8.60;99.90;;;;;;5088521;28;20066;-84
2022/11/14 11:01:32;;;;;;;41.53;23.52;;;8.60;99.90;;;;;;5123660;28;20077;-83
2022/11/14 11:03:57;;;;;;;42.40;24.75;;;8.50;99.90;;;;;;5104007;28;20073;-89
2022/11/14 11:06:24;;;;;;;49.47;26.88;;;8.40;99.90;;;;;;5101132;28;20043;-82
2022/11/14 11:11:40;;;;;;;;;;;8.50;99.90;;;;;;5091356;28;20059;-83
2022/11/14 11:14:14;;;;;;;41.67;23.80;;;8.30;99.90;;;;;;5103737;28;19930;-87
2022/11/14 11:16:40;;;;;;;44.05;25.17;;;8.30;99.90;;;;;;5102735;28;20047;-84
2022/11/14 11:19:25;;;;;;;46.53;27.50;;;8.30;99.90;;;;;;5104485;28;20039;-86
2022/11/14 11:21:51;;;;;;;43.65;23.02;;;8.40;99.90;;;;;;5083713;28;20071;-86
2022/11/14 11:24:36;;;;;;;44.78;25.10;;;8.50;99.90;;;;;;5096207;28;20121;-83
2022/11/14 11:27:11;;;;;;;;;;;8.60;99.90;;;;;;5097377;28;20110;-86
2022/11/14 11:29:37;;;;;;;45.33;25.45;;;8.50;99.90;;;;;;5096505;28;20866;-86
2022/11/14 11:32:03;;;;;;;42.17;25.23;;;8.40;99.90;;;;;;5097300;28;20097;-86
2022/11/14 11:34:32;;;;;;;47.55;27.63;;;8.50;99.90;;;;;;5113983;28;20090;-85
2022/11/14 11:36:57;;;;;;;46.72;27.35;;;8.50;99.90;;;;;;5113669;28;20039;-88
2022/11/14 11:39:26;;;;;;;44.97;26.95;;;8.50;99.90;;;;;;5113450;28;20427;-87
2022/11/14 11:41:53;;;;;;;48.00;27.17;;;8.50;99.90;;;;;;5079813;28;20124;-86
2022/11/14 11:44:19;;;;;;;44.97;26.35;;;8.50;99.90;;;;;;5063273;28;20040;-86
2022/11/14 11:46:51;;;;;;;44.72;26.15;;;8.50;99.90;;;;;;5079590;28;20050;-87
2022/11/14 11:49:20;;;;;;;44.20;25.65;;;8.70;99.90;;;;;;5095942;28;20055;-86
2022/11/14 11:51:46;;;;;;;42.40;23.95;;;8.60;99.90;;;;;;5096909;28;20400;-87
2022/11/14 11:54:17;;;;;;;44.70;26.35;;;8.70;99.90;;;;;;5113339;28;20058;-84
2022/11/14 11:56:43;;;;;;;39.33;23.30;;;8.80;99.90;;;;;;5063168;28;20043;-86
2022/11/14 11:59:26;;;;;;;47.28;27.13;;;8.70;99.90;;;;;;5059343;28;20407;-87
2022/11/14 12:01:51;;;;;;;35.78;21.42;;;8.70;99.90;;;;;;5090504;28;20051;-87
2022/11/14 12:04:17;;;;;;;44.60;25.50;;;9.00;99.90;;;;;;5108978;28;20088;-86
2022/11/14 12:07:08;;;;;;;43.60;26.40;;;8.80;99.90;;;;;;5061458;28;20051;-87
2022/11/14 12:09:40;;;;;;;34.22;18.30;;;8.80;99.90;;;;;;5059049;28;20064;-89
2022/11/14 12:12:17;;;;;;;46.00;26.15;;;9.00;99.90;;;;;;5091127;28;20154;-87
2022/11/14 12:14:58;;;;;;;44.13;25.88;;;8.90;99.90;;;;;;5101680;28;20530;-86
2022/11/14 12:17:49;;;;;;;45.97;26.42;;;8.80;99.90;;;;;;5108584;28;20044;-85
2022/11/14 12:20:52;;;;;;;43.67;26.25;;;8.90;99.90;;;;;;5133158;28;20069;-87
2022/11/14 12:23:32;;;;;;;46.45;27.33;;;8.90;99.90;;;;;;5122463;28;20035;-87
2022/11/14 12:26:02;;;;;;;44.65;26.60;;;9.00;99.90;;;;;;5101284;28;20127;-87
2022/11/14 12:28:47;;;;;;;47.83;28.35;;;8.90;99.90;;;;;;5111193;28;20413;-86
2022/11/14 12:31:13;;;;;;;41.45;25.45;;;9.00;99.90;;;;;;5104599;28;20047;-84
2022/11/14 12:33:42;;;;;;;40.08;25.48;;;9.10;99.90;;;;;;5085400;28;20042;-83
2022/11/14 12:36:09;;;;;;;44.70;26.55;;;9.20;99.90;;;;;;5078019;28;20072;-84
2022/11/14 12:38:52;;;;;;;44.88;27.95;;;9.10;99.90;;;;;;5064066;28;20480;-82
2022/11/14 12:41:27;;;;;;;45.20;26.67;;;9.10;99.90;;;;;;5091513;28;20043;-83
2022/11/14 12:44:13;;;;;;;41.60;25.15;;;9.20;99.90;;;;;;5079112;28;20047;-83
2022/11/14 12:47:18;;;;;;;39.67;21.67;;;9.20;99.90;;;;;;5091657;28;20040;-84